sensor_id;sensor_type;location;lat;lon;timestamp;pressure;altitude;pressure_sealevel;temperature;humidity
13235;BME280;6683;48.506;9.050;2023-10-09T00:01:29;98776.56;;;14.03;53.46
13235;BME280;6683;48.506;9.050;2023-10-09T00:04:32;98779.22;;;14.03;53.53
13235;BME280;6683;48.506;9.050;2023-10-09T00:07:38;98775.13;;;14.00;53.67
13235;BME280;6683;48.506;9.050;2023-10-09T00:10:40;98771.03;;;13.98;53.71
13235;BME280;6683;48.506;9.050;2023-10-09T00:13:50;98766.94;;;13.95;53.69
13235;BME280;6683;48.506;9.050;2023-10-09T00:16:53;98766.50;;;13.92;53.63
13235;BME280;6683;48.506;9.050;2023-10-09T00:20:07;98764.25;;;13.89;53.84
13235;BME280;6683;48.506;9.050;2023-10-09T00:23:20;98761.13;;;13.85;53.98
13235;BME280;6683;48.506;9.050;2023-10-09T00:26:26;98757.84;;;13.83;54.02
13235;BME280;6683;48.506;9.050;2023-10-09T00:29:31;98758.06;;;13.82;53.85
13235;BME280;6683;48.506;9.050;2023-10-09T00:32:35;98755.59;;;13.80;54.07
13235;BME280;6683;48.506;9.050;2023-10-09T00:35:38;98752.13;;;13.80;53.97
13235;BME280;6683;48.506;9.050;2023-10-09T00:38:56;98742.69;;;13.77;54.21
13235;BME280;6683;48.506;9.050;2023-10-09T00:42:01;98747.59;;;13.74;54.30
13235;BME280;6683;48.506;9.050;2023-10-09T00:45:08;98733.91;;;13.70;54.27
13235;BME280;6683;48.506;9.050;2023-10-09T00:48:17;98733.28;;;13.68;54.08
13235;BME280;6683;48.506;9.050;2023-10-09T00:51:27;98733.84;;;13.63;54.39
13235;BME280;6683;48.506;9.050;2023-10-09T00:54:36;98737.88;;;13.59;54.56
13235;BME280;6683;48.506;9.050;2023-10-09T00:57:45;98731.34;;;13.55;54.28
13235;BME280;6683;48.506;9.050;2023-10-09T01:00:57;98722.91;;;13.52;54.60
13235;BME280;6683;48.506;9.050;2023-10-09T01:04:01;98724.31;;;13.48;54.45
13235;BME280;6683;48.506;9.050;2023-10-09T01:07:07;98724.72;;;13.45;54.44
13235;BME280;6683;48.506;9.050;2023-10-09T01:10:17;98728.94;;;13.39;54.45
13235;BME280;6683;48.506;9.050;2023-10-09T01:13:20;98731.97;;;13.36;54.53
13235;BME280;6683;48.506;9.050;2023-10-09T01:16:28;98726.25;;;13.33;54.67
13235;BME280;6683;48.506;9.050;2023-10-09T01:19:32;98717.84;;;13.29;54.81
13235;BME280;6683;48.506;9.050;2023-10-09T01:22:34;98720.06;;;13.26;54.88
13235;BME280;6683;48.506;9.050;2023-10-09T01:25:38;98721.25;;;13.23;54.99
13235;BME280;6683;48.506;9.050;2023-10-09T01:28:50;98715.53;;;13.20;54.88
13235;BME280;6683;48.506;9.050;2023-10-09T01:31:58;98716.72;;;13.17;54.93
13235;BME280;6683;48.506;9.050;2023-10-09T01:35:05;98715.47;;;13.13;55.24
13235;BME280;6683;48.506;9.050;2023-10-09T01:38:21;98713.00;;;13.12;55.09
13235;BME280;6683;48.506;9.050;2023-10-09T01:41:33;98708.91;;;13.09;55.25
13235;BME280;6683;48.506;9.050;2023-10-09T01:44:38;98698.28;;;13.09;55.09
13235;BME280;6683;48.506;9.050;2023-10-09T01:47:44;98701.78;;;13.10;55.46
13235;BME280;6683;48.506;9.050;2023-10-09T01:50:52;98697.66;;;13.07;55.56
13235;BME280;6683;48.506;9.050;2023-10-09T01:53:55;98700.50;;;13.06;55.46
13235;BME280;6683;48.506;9.050;2023-10-09T01:56:59;98696.38;;;13.03;55.52
13235;BME280;6683;48.506;9.050;2023-10-09T02:00:07;98693.72;;;13.03;55.63
13235;BME280;6683;48.506;9.050;2023-10-09T02:03:10;98694.38;;;13.05;55.73
13235;BME280;6683;48.506;9.050;2023-10-09T02:06:24;98689.91;;;13.06;55.64
13235;BME280;6683;48.506;9.050;2023-10-09T02:09:27;98690.53;;;13.08;55.67
13235;BME280;6683;48.506;9.050;2023-10-09T02:12:33;98685.03;;;13.09;55.82
13235;BME280;6683;48.506;9.050;2023-10-09T02:15:38;98681.19;;;13.12;56.11
13235;BME280;6683;48.506;9.050;2023-10-09T02:18:46;98686.09;;;13.15;56.16
13235;BME280;6683;48.506;9.050;2023-10-09T02:21:54;98680.59;;;13.16;55.98
13235;BME280;6683;48.506;9.050;2023-10-09T02:24:58;98676.97;;;13.17;55.99
13235;BME280;6683;48.506;9.050;2023-10-09T02:28:02;98674.94;;;13.19;56.12
13235;BME280;6683;48.506;9.050;2023-10-09T02:31:11;98675.75;;;13.20;56.13
13235;BME280;6683;48.506;9.050;2023-10-09T02:34:13;98670.25;;;13.21;56.38
13235;BME280;6683;48.506;9.050;2023-10-09T02:37:16;98674.38;;;13.24;56.21
13235;BME280;6683;48.506;9.050;2023-10-09T02:40:27;98679.66;;;13.24;56.18
13235;BME280;6683;48.506;9.050;2023-10-09T02:43:35;98670.06;;;13.23;56.33
13235;BME280;6683;48.506;9.050;2023-10-09T02:46:45;98667.88;;;13.26;56.30
13235;BME280;6683;48.506;9.050;2023-10-09T02:49:47;98661.53;;;13.27;56.42
13235;BME280;6683;48.506;9.050;2023-10-09T02:53:01;98665.63;;;13.30;56.71
13235;BME280;6683;48.506;9.050;2023-10-09T02:56:09;98661.97;;;13.31;56.62
13235;BME280;6683;48.506;9.050;2023-10-09T02:59:15;98659.50;;;13.29;56.59
13235;BME280;6683;48.506;9.050;2023-10-09T03:02:17;98660.53;;;13.28;56.22
13235;BME280;6683;48.506;9.050;2023-10-09T03:05:20;98666.00;;;13.27;56.58
13235;BME280;6683;48.506;9.050;2023-10-09T03:08:22;98657.44;;;13.25;56.63
13235;BME280;6683;48.506;9.050;2023-10-09T03:11:24;98661.09;;;13.24;56.48
13235;BME280;6683;48.506;9.050;2023-10-09T03:14:29;98664.75;;;13.23;56.55
13235;BME280;6683;48.506;9.050;2023-10-09T03:17:31;98656.00;;;13.22;56.43
13235;BME280;6683;48.506;9.050;2023-10-09T03:20:34;98660.28;;;13.23;56.67
13235;BME280;6683;48.506;9.050;2023-10-09T03:23:38;98658.47;;;13.24;56.58
13235;BME280;6683;48.506;9.050;2023-10-09T03:26:40;98655.59;;;13.25;56.85
13235;BME280;6683;48.506;9.050;2023-10-09T03:29:47;98654.59;;;13.26;56.80
13235;BME280;6683;48.506;9.050;2023-10-09T03:32:51;98649.31;;;13.26;56.93
13235;BME280;6683;48.506;9.050;2023-10-09T03:35:53;98648.28;;;13.27;56.97
13235;BME280;6683;48.506;9.050;2023-10-09T03:38:56;98653.38;;;13.29;57.05
13235;BME280;6683;48.506;9.050;2023-10-09T03:41:58;98655.25;;;13.28;56.89
13235;BME280;6683;48.506;9.050;2023-10-09T03:45:03;98656.03;;;13.29;57.13
13235;BME280;6683;48.506;9.050;2023-10-09T03:48:13;98652.38;;;13.30;57.06
13235;BME280;6683;48.506;9.050;2023-10-09T03:51:22;98650.56;;;13.30;57.03
13235;BME280;6683;48.506;9.050;2023-10-09T03:54:27;98653.00;;;13.32;57.18
13235;BME280;6683;48.506;9.050;2023-10-09T03:57:30;98656.50;;;13.32;57.02
13235;BME280;6683;48.506;9.050;2023-10-09T04:00:34;98655.47;;;13.33;57.09
13235;BME280;6683;48.506;9.050;2023-10-09T04:03:45;98649.78;;;13.36;57.31
13235;BME280;6683;48.506;9.050;2023-10-09T04:06:47;98644.06;;;13.39;57.30
13235;BME280;6683;48.506;9.050;2023-10-09T04:09:49;98638.41;;;13.42;57.49
13235;BME280;6683;48.506;9.050;2023-10-09T04:13:03;98638.19;;;13.44;57.40
13235;BME280;6683;48.506;9.050;2023-10-09T04:16:11;98626.75;;;13.43;57.38
13235;BME280;6683;48.506;9.050;2023-10-09T04:19:29;98634.56;;;13.45;57.18
13235;BME280;6683;48.506;9.050;2023-10-09T04:22:40;98634.72;;;13.43;57.29
13235;BME280;6683;48.506;9.050;2023-10-09T04:25:50;98637.38;;;13.43;57.54
13235;BME280;6683;48.506;9.050;2023-10-09T04:28:53;98640.03;;;13.43;57.31
13235;BME280;6683;48.506;9.050;2023-10-09T04:31:57;98642.69;;;13.43;57.36
13235;BME280;6683;48.506;9.050;2023-10-09T04:35:01;98639.84;;;13.45;57.43
13235;BME280;6683;48.506;9.050;2023-10-09T04:38:17;98646.63;;;13.47;57.57
13235;BME280;6683;48.506;9.050;2023-10-09T04:41:19;98645.59;;;13.48;57.46
13235;BME280;6683;48.506;9.050;2023-10-09T04:44:28;98639.28;;;13.49;57.49
13235;BME280;6683;48.506;9.050;2023-10-09T04:47:38;98634.16;;;13.48;57.34
13235;BME280;6683;48.506;9.050;2023-10-09T04:50:50;98636.81;;;13.48;57.60
13235;BME280;6683;48.506;9.050;2023-10-09T04:54:10;98642.09;;;13.48;57.36
13235;BME280;6683;48.506;9.050;2023-10-09T04:57:14;98631.69;;;13.46;57.55
13235;BME280;6683;48.506;9.050;2023-10-09T05:00:19;98646.00;;;13.45;57.67
13235;BME280;6683;48.506;9.050;2023-10-09T05:03:45;98643.72;;;13.42;57.69
13235;BME280;6683;48.506;9.050;2023-10-09T05:06:57;98649.84;;;13.43;57.65
13235;BME280;6683;48.506;9.050;2023-10-09T05:09:59;98649.22;;;13.41;57.55
13235;BME280;6683;48.506;9.050;2023-10-09T05:13:15;98644.28;;;13.38;57.52
13235;BME280;6683;48.506;9.050;2023-10-09T05:16:37;98653.44;;;13.35;57.30
13235;BME280;6683;48.506;9.050;2023-10-09T05:19:53;98655.88;;;13.30;57.59
13235;BME280;6683;48.506;9.050;2023-10-09T05:23:19;98663.19;;;13.28;57.35
13235;BME280;6683;48.506;9.050;2023-10-09T05:26:26;98659.09;;;13.26;57.71
13235;BME280;6683;48.506;9.050;2023-10-09T05:29:38;98652.97;;;13.25;57.64
13235;BME280;6683;48.506;9.050;2023-10-09T05:32:49;98661.94;;;13.24;57.85
13235;BME280;6683;48.506;9.050;2023-10-09T05:35:57;98671.09;;;13.22;57.86
13235;BME280;6683;48.506;9.050;2023-10-09T05:39:06;98673.94;;;13.20;57.82
13235;BME280;6683;48.506;9.050;2023-10-09T05:42:23;98666.97;;;13.19;57.92
13235;BME280;6683;48.506;9.050;2023-10-09T05:45:29;98673.09;;;13.20;58.16
13235;BME280;6683;48.506;9.050;2023-10-09T05:48:54;98679.41;;;13.19;57.97
13235;BME280;6683;48.506;9.050;2023-10-09T05:52:11;98675.75;;;13.20;58.20
13235;BME280;6683;48.506;9.050;2023-10-09T05:55:28;98669.44;;;13.21;58.08
13235;BME280;6683;48.506;9.050;2023-10-09T05:58:48;98668.22;;;13.23;58.15
13235;BME280;6683;48.506;9.050;2023-10-09T06:02:08;98681.28;;;13.25;58.05
13235;BME280;6683;48.506;9.050;2023-10-09T06:05:39;98678.28;;;13.28;58.02
13235;BME280;6683;48.506;9.050;2023-10-09T06:09:06;98673.59;;;13.30;58.21
13235;BME280;6683;48.506;9.050;2023-10-09T06:12:25;98686.28;;;13.34;58.05
13235;BME280;6683;48.506;9.050;2023-10-09T06:15:50;98688.38;;;13.39;57.99
13235;BME280;6683;48.506;9.050;2023-10-09T06:19:10;98693.06;;;13.43;58.21
13235;BME280;6683;48.506;9.050;2023-10-09T06:22:27;98702.31;;;13.47;58.24
13235;BME280;6683;48.506;9.050;2023-10-09T06:25:48;98701.34;;;13.55;58.49
13235;BME280;6683;48.506;9.050;2023-10-09T06:28:52;98704.88;;;13.62;58.40
13235;BME280;6683;48.506;9.050;2023-10-09T06:32:09;98704.88;;;13.69;58.35
13235;BME280;6683;48.506;9.050;2023-10-09T06:35:37;98704.75;;;13.77;58.39
13235;BME280;6683;48.506;9.050;2023-10-09T06:38:40;98702.13;;;13.83;58.47
13235;BME280;6683;48.506;9.050;2023-10-09T06:42:14;98710.75;;;13.92;58.43
13235;BME280;6683;48.506;9.050;2023-10-09T06:45:30;98712.44;;;13.99;58.43
13235;BME280;6683;48.506;9.050;2023-10-09T06:48:44;98704.31;;;14.07;58.54
13235;BME280;6683;48.506;9.050;2023-10-09T06:51:46;98713.56;;;14.18;58.51
13235;BME280;6683;48.506;9.050;2023-10-09T06:54:48;98707.06;;;14.27;58.64
13235;BME280;6683;48.506;9.050;2023-10-09T06:57:53;98694.47;;;14.35;58.63
13235;BME280;6683;48.506;9.050;2023-10-09T07:00:56;98705.38;;;14.47;58.58
13235;BME280;6683;48.506;9.050;2023-10-09T07:04:13;98701.50;;;14.56;58.54
13235;BME280;6683;48.506;9.050;2023-10-09T07:07:41;98703.59;;;14.67;58.56
13235;BME280;6683;48.506;9.050;2023-10-09T07:10:52;98692.97;;;14.74;58.57
13235;BME280;6683;48.506;9.050;2023-10-09T07:14:18;98699.53;;;14.84;58.55
13235;BME280;6683;48.506;9.050;2023-10-09T07:17:50;98699.97;;;14.94;58.35
13235;BME280;6683;48.506;9.050;2023-10-09T07:20:53;98706.75;;;15.03;58.27
13235;BME280;6683;48.506;9.050;2023-10-09T07:24:02;98704.91;;;15.10;58.06
13235;BME280;6683;48.506;9.050;2023-10-09T07:27:16;98714.72;;;15.16;58.00
13235;BME280;6683;48.506;9.050;2023-10-09T07:30:21;98710.44;;;15.22;57.89
13235;BME280;6683;48.506;9.050;2023-10-09T07:33:38;98708.41;;;15.31;57.80
13235;BME280;6683;48.506;9.050;2023-10-09T07:36:57;98713.31;;;15.40;57.72
13235;BME280;6683;48.506;9.050;2023-10-09T07:40:06;98712.97;;;15.50;57.68
13235;BME280;6683;48.506;9.050;2023-10-09T07:43:08;98701.06;;;15.59;57.50
13235;BME280;6683;48.506;9.050;2023-10-09T07:46:19;98705.16;;;15.68;57.56
13235;BME280;6683;48.506;9.050;2023-10-09T07:49:34;98704.34;;;15.80;57.39
13235;BME280;6683;48.506;9.050;2023-10-09T07:52:38;98714.13;;;15.93;57.39
13235;BME280;6683;48.506;9.050;2023-10-09T07:55:44;98707.53;;;16.02;57.12
13235;BME280;6683;48.506;9.050;2023-10-09T07:58:54;98715.13;;;16.12;56.92
13235;BME280;6683;48.506;9.050;2023-10-09T08:02:02;98707.94;;;16.19;57.06
13235;BME280;6683;48.506;9.050;2023-10-09T08:05:06;98707.50;;;16.28;56.88
13235;BME280;6683;48.506;9.050;2023-10-09T08:08:19;98712.19;;;16.39;56.93
13235;BME280;6683;48.506;9.050;2023-10-09T08:11:35;98708.06;;;16.50;56.77
13235;BME280;6683;48.506;9.050;2023-10-09T08:15:01;98705.16;;;16.58;56.67
13235;BME280;6683;48.506;9.050;2023-10-09T08:18:22;98707.34;;;16.67;56.66
13235;BME280;6683;48.506;9.050;2023-10-09T08:21:29;98711.81;;;16.80;56.79
13235;BME280;6683;48.506;9.050;2023-10-09T08:24:42;98708.47;;;16.91;56.69
13235;BME280;6683;48.506;9.050;2023-10-09T08:27:54;98705.72;;;17.04;56.47
13235;BME280;6683;48.506;9.050;2023-10-09T08:30:57;98703.41;;;17.14;56.15
13235;BME280;6683;48.506;9.050;2023-10-09T08:34:06;98707.22;;;17.25;56.04
13235;BME280;6683;48.506;9.050;2023-10-09T08:37:10;98696.66;;;17.36;55.92
13235;BME280;6683;48.506;9.050;2023-10-09T08:40:14;98699.25;;;17.49;55.91
13235;BME280;6683;48.506;9.050;2023-10-09T08:43:20;98694.41;;;17.65;56.09
13235;BME280;6683;48.506;9.050;2023-10-09T08:46:24;98696.28;;;17.82;55.98
13235;BME280;6683;48.506;9.050;2023-10-09T08:49:29;98689.94;;;18.01;55.80
13235;BME280;6683;48.506;9.050;2023-10-09T08:52:34;98689.13;;;18.19;55.80
13235;BME280;6683;48.506;9.050;2023-10-09T08:55:39;98690.97;;;18.36;55.60
13235;BME280;6683;48.506;9.050;2023-10-09T08:58:41;98681.94;;;18.56;55.30
13235;BME280;6683;48.506;9.050;2023-10-09T09:01:43;98679.22;;;18.74;55.24
13235;BME280;6683;48.506;9.050;2023-10-09T09:04:51;98692.56;;;18.92;55.00
13235;BME280;6683;48.506;9.050;2023-10-09T09:07:53;98687.13;;;19.10;54.89
13235;BME280;6683;48.506;9.050;2023-10-09T09:11:02;98686.22;;;19.28;54.56
13235;BME280;6683;48.506;9.050;2023-10-09T09:14:12;98685.81;;;19.42;54.39
13235;BME280;6683;48.506;9.050;2023-10-09T09:17:23;98681.06;;;19.56;54.24
13235;BME280;6683;48.506;9.050;2023-10-09T09:20:34;98682.81;;;19.73;53.89
13235;BME280;6683;48.506;9.050;2023-10-09T09:23:57;98678.03;;;19.87;53.97
13235;BME280;6683;48.506;9.050;2023-10-09T09:27:03;98690.72;;;20.03;53.86
13235;BME280;6683;48.506;9.050;2023-10-09T09:30:23;98693.53;;;20.20;53.39
13235;BME280;6683;48.506;9.050;2023-10-09T09:33:27;98700.63;;;20.37;53.26
13235;BME280;6683;48.506;9.050;2023-10-09T09:36:57;98700.13;;;20.52;53.09
13235;BME280;6683;48.506;9.050;2023-10-09T09:40:01;98711.16;;;20.67;52.56
13235;BME280;6683;48.506;9.050;2023-10-09T09:43:15;98709.00;;;20.81;52.35
13235;BME280;6683;48.506;9.050;2023-10-09T09:46:23;98707.66;;;20.95;52.04
13235;BME280;6683;48.506;9.050;2023-10-09T09:49:34;98721.63;;;21.08;51.76
13235;BME280;6683;48.506;9.050;2023-10-09T09:52:41;98725.66;;;21.22;51.46
13235;BME280;6683;48.506;9.050;2023-10-09T09:55:49;98710.63;;;21.38;51.46
13235;BME280;6683;48.506;9.050;2023-10-09T09:59:00;98718.44;;;21.56;51.29
13235;BME280;6683;48.506;9.050;2023-10-09T10:02:11;98708.81;;;21.77;50.92
13235;BME280;6683;48.506;9.050;2023-10-09T10:05:21;98701.34;;;21.95;50.68
13235;BME280;6683;48.506;9.050;2023-10-09T10:08:26;98696.75;;;22.12;50.19
13235;BME280;6683;48.506;9.050;2023-10-09T10:11:44;98703.03;;;22.40;50.21
13235;BME280;6683;48.506;9.050;2023-10-09T10:14:53;98694.28;;;22.71;49.98
13235;BME280;6683;48.506;9.050;2023-10-09T10:18:18;98694.16;;;23.09;49.83
13235;BME280;6683;48.506;9.050;2023-10-09T10:21:23;98694.53;;;23.49;49.17
13235;BME280;6683;48.506;9.050;2023-10-09T10:24:43;98689.19;;;23.91;48.75
13235;BME280;6683;48.506;9.050;2023-10-09T10:28:17;98690.81;;;24.39;48.21
13235;BME280;6683;48.506;9.050;2023-10-09T10:31:56;98687.50;;;24.79;47.79
13235;BME280;6683;48.506;9.050;2023-10-09T10:35:01;98682.44;;;25.02;46.96
13235;BME280;6683;48.506;9.050;2023-10-09T10:38:26;98687.59;;;25.29;46.85
13235;BME280;6683;48.506;9.050;2023-10-09T10:41:35;98673.59;;;25.57;45.87
13235;BME280;6683;48.506;9.050;2023-10-09T10:44:51;98678.69;;;25.84;45.44
13235;BME280;6683;48.506;9.050;2023-10-09T10:47:54;98673.25;;;26.09;44.74
13235;BME280;6683;48.506;9.050;2023-10-09T10:50:59;98672.91;;;26.31;44.76
13235;BME280;6683;48.506;9.050;2023-10-09T10:54:02;98664.19;;;26.49;44.37
13235;BME280;6683;48.506;9.050;2023-10-09T10:57:21;98658.44;;;26.60;43.42
13235;BME280;6683;48.506;9.050;2023-10-09T11:00:54;98654.88;;;26.75;43.39
13235;BME280;6683;48.506;9.050;2023-10-09T11:04:12;98653.41;;;26.92;42.69
13235;BME280;6683;48.506;9.050;2023-10-09T11:07:13;98652.25;;;27.04;42.37
13235;BME280;6683;48.506;9.050;2023-10-09T11:10:22;98658.94;;;27.16;41.89
13235;BME280;6683;48.506;9.050;2023-10-09T11:13:31;98656.97;;;27.27;41.53
13235;BME280;6683;48.506;9.050;2023-10-09T11:16:36;98652.03;;;27.34;41.21
13235;BME280;6683;48.506;9.050;2023-10-09T11:19:48;98654.44;;;27.40;40.84
13235;BME280;6683;48.506;9.050;2023-10-09T11:22:53;98650.91;;;27.45;40.31
13235;BME280;6683;48.506;9.050;2023-10-09T11:26:15;98655.19;;;27.51;39.89
13235;BME280;6683;48.506;9.050;2023-10-09T11:29:23;98657.03;;;27.55;39.48
13235;BME280;6683;48.506;9.050;2023-10-09T11:32:29;98650.72;;;27.60;38.81
13235;BME280;6683;48.506;9.050;2023-10-09T11:35:33;98654.78;;;27.62;38.62
13235;BME280;6683;48.506;9.050;2023-10-09T11:38:37;98653.63;;;27.68;38.63
13235;BME280;6683;48.506;9.050;2023-10-09T11:41:40;98654.97;;;27.71;38.33
13235;BME280;6683;48.506;9.050;2023-10-09T11:44:44;98650.59;;;27.75;38.19
13235;BME280;6683;48.506;9.050;2023-10-09T11:47:48;98651.94;;;27.78;37.96
13235;BME280;6683;48.506;9.050;2023-10-09T11:50:57;98646.81;;;27.76;37.18
13235;BME280;6683;48.506;9.050;2023-10-09T11:54:29;98644.66;;;27.73;37.20
13235;BME280;6683;48.506;9.050;2023-10-09T11:57:31;98645.75;;;27.72;37.32
13235;BME280;6683;48.506;9.050;2023-10-09T12:00:35;98635.75;;;27.67;37.02
13235;BME280;6683;48.506;9.050;2023-10-09T12:03:47;98634.72;;;27.63;36.66
13235;BME280;6683;48.506;9.050;2023-10-09T12:06:51;98629.84;;;27.60;36.47
13235;BME280;6683;48.506;9.050;2023-10-09T12:10:07;98626.09;;;27.56;36.46
13235;BME280;6683;48.506;9.050;2023-10-09T12:13:11;98614.72;;;27.54;36.57
13235;BME280;6683;48.506;9.050;2023-10-09T12:16:17;98613.13;;;27.53;36.25
13235;BME280;6683;48.506;9.050;2023-10-09T12:19:19;98612.31;;;27.53;36.49
13235;BME280;6683;48.506;9.050;2023-10-09T12:22:22;98608.78;;;27.52;36.30
13235;BME280;6683;48.506;9.050;2023-10-09T12:25:30;98601.50;;;27.48;35.91
13235;BME280;6683;48.506;9.050;2023-10-09T12:28:33;98585.28;;;27.43;36.18
13235;BME280;6683;48.506;9.050;2023-10-09T12:31:36;98586.13;;;27.38;36.57
13235;BME280;6683;48.506;9.050;2023-10-09T12:34:39;98585.09;;;27.34;36.60
13235;BME280;6683;48.506;9.050;2023-10-09T12:37:43;98574.25;;;27.34;36.34
13235;BME280;6683;48.506;9.050;2023-10-09T12:40:45;98567.72;;;27.35;36.09
13235;BME280;6683;48.506;9.050;2023-10-09T12:43:52;98567.97;;;27.39;36.43
13235;BME280;6683;48.506;9.050;2023-10-09T12:46:56;98569.03;;;27.43;36.28
13235;BME280;6683;48.506;9.050;2023-10-09T12:49:58;98562.44;;;27.49;35.79
13235;BME280;6683;48.506;9.050;2023-10-09T12:53:00;98560.19;;;27.56;36.07
13235;BME280;6683;48.506;9.050;2023-10-09T12:56:07;98565.78;;;27.64;35.75
13235;BME280;6683;48.506;9.050;2023-10-09T12:59:09;98559.72;;;27.73;35.97
13235;BME280;6683;48.506;9.050;2023-10-09T13:02:16;98549.34;;;27.80;35.52
13235;BME280;6683;48.506;9.050;2023-10-09T13:05:30;98547.63;;;27.89;35.28
13235;BME280;6683;48.506;9.050;2023-10-09T13:08:32;98539.41;;;27.99;35.23
13235;BME280;6683;48.506;9.050;2023-10-09T13:11:36;98536.53;;;28.09;34.68
13235;BME280;6683;48.506;9.050;2023-10-09T13:14:38;98535.06;;;28.16;34.62
13235;BME280;6683;48.506;9.050;2023-10-09T13:17:43;98535.53;;;28.23;34.54
13235;BME280;6683;48.506;9.050;2023-10-09T13:20:45;98542.44;;;28.34;34.52
13235;BME280;6683;48.506;9.050;2023-10-09T13:23:49;98537.44;;;28.41;33.82
13235;BME280;6683;48.506;9.050;2023-10-09T13:26:52;98542.50;;;28.48;33.50
13235;BME280;6683;48.506;9.050;2023-10-09T13:29:58;98541.06;;;28.56;33.25
13235;BME280;6683;48.506;9.050;2023-10-09T13:33:07;98542.91;;;28.60;33.39
13235;BME280;6683;48.506;9.050;2023-10-09T13:36:15;98542.03;;;28.65;33.08
13235;BME280;6683;48.506;9.050;2023-10-09T13:39:20;98534.69;;;28.65;32.45
13235;BME280;6683;48.506;9.050;2023-10-09T13:42:25;98541.16;;;28.69;32.71
13235;BME280;6683;48.506;9.050;2023-10-09T13:45:27;98539.44;;;28.73;32.25
13235;BME280;6683;48.506;9.050;2023-10-09T13:48:30;98551.66;;;28.76;32.61
13235;BME280;6683;48.506;9.050;2023-10-09T13:51:38;98545.91;;;28.77;31.97
13235;BME280;6683;48.506;9.050;2023-10-09T13:54:44;98550.25;;;28.78;32.14
13235;BME280;6683;48.506;9.050;2023-10-09T13:57:48;98553.78;;;28.79;32.32
13235;BME280;6683;48.506;9.050;2023-10-09T14:00:50;98548.34;;;28.79;31.99
13235;BME280;6683;48.506;9.050;2023-10-09T14:03:57;98551.84;;;28.79;31.95
13235;BME280;6683;48.506;9.050;2023-10-09T14:07:00;98543.50;;;28.76;31.82
13235;BME280;6683;48.506;9.050;2023-10-09T14:10:07;98530.78;;;28.71;31.85
13235;BME280;6683;48.506;9.050;2023-10-09T14:13:18;98530.28;;;28.69;31.49
13235;BME280;6683;48.506;9.050;2023-10-09T14:16:27;98534.91;;;28.69;31.86
13235;BME280;6683;48.506;9.050;2023-10-09T14:19:30;98526.22;;;28.67;31.89
13235;BME280;6683;48.506;9.050;2023-10-09T14:22:34;98529.56;;;28.64;31.68
13235;BME280;6683;48.506;9.050;2023-10-09T14:25:39;98519.88;;;28.58;31.92
13235;BME280;6683;48.506;9.050;2023-10-09T14:28:41;98523.44;;;28.53;31.79
13235;BME280;6683;48.506;9.050;2023-10-09T14:31:43;98524.63;;;28.47;31.96
13235;BME280;6683;48.506;9.050;2023-10-09T14:34:51;98515.72;;;28.41;31.77
13235;BME280;6683;48.506;9.050;2023-10-09T14:37:55;98517.72;;;28.36;31.68
13235;BME280;6683;48.506;9.050;2023-10-09T14:40:57;98501.25;;;28.27;31.37
13235;BME280;6683;48.506;9.050;2023-10-09T14:44:00;98507.56;;;28.23;31.17
13235;BME280;6683;48.506;9.050;2023-10-09T14:47:03;98491.38;;;28.18;31.16
13235;BME280;6683;48.506;9.050;2023-10-09T14:50:09;98491.44;;;28.13;30.88
13235;BME280;6683;48.506;9.050;2023-10-09T14:53:14;98490.09;;;28.10;31.39
13235;BME280;6683;48.506;9.050;2023-10-09T14:56:17;98498.03;;;28.07;31.49
13235;BME280;6683;48.506;9.050;2023-10-09T14:59:29;98490.44;;;28.04;31.64
13235;BME280;6683;48.506;9.050;2023-10-09T15:02:31;98491.06;;;28.01;31.74
13235;BME280;6683;48.506;9.050;2023-10-09T15:05:35;98493.78;;;27.96;31.35
13235;BME280;6683;48.506;9.050;2023-10-09T15:08:38;98496.81;;;27.94;31.39
13235;BME280;6683;48.506;9.050;2023-10-09T15:11:40;98498.19;;;27.92;31.42
13235;BME280;6683;48.506;9.050;2023-10-09T15:14:42;98502.00;;;27.91;31.39
13235;BME280;6683;48.506;9.050;2023-10-09T15:17:45;98495.56;;;27.87;30.81
13235;BME280;6683;48.506;9.050;2023-10-09T15:20:50;98500.75;;;27.83;30.87
13235;BME280;6683;48.506;9.050;2023-10-09T15:23:53;98494.53;;;27.83;30.69
13235;BME280;6683;48.506;9.050;2023-10-09T15:26:56;98503.44;;;27.83;30.99
13235;BME280;6683;48.506;9.050;2023-10-09T15:29:58;98505.38;;;27.83;30.90
13235;BME280;6683;48.506;9.050;2023-10-09T15:33:00;98510.81;;;27.83;31.51
13235;BME280;6683;48.506;9.050;2023-10-09T15:36:12;98509.47;;;27.80;31.21
13235;BME280;6683;48.506;9.050;2023-10-09T15:39:14;98506.75;;;27.80;31.40
13235;BME280;6683;48.506;9.050;2023-10-09T15:42:19;98502.19;;;27.76;31.69
13235;BME280;6683;48.506;9.050;2023-10-09T15:45:23;98506.88;;;27.70;31.57
13235;BME280;6683;48.506;9.050;2023-10-09T15:48:29;98496.38;;;27.63;31.91
13235;BME280;6683;48.506;9.050;2023-10-09T15:51:34;98492.13;;;27.57;31.59
13235;BME280;6683;48.506;9.050;2023-10-09T15:54:36;98492.47;;;27.51;31.81
13235;BME280;6683;48.506;9.050;2023-10-09T15:57:39;98501.75;;;27.45;32.23
13235;BME280;6683;48.506;9.050;2023-10-09T16:00:43;98504.56;;;27.35;32.49
13235;BME280;6683;48.506;9.050;2023-10-09T16:03:46;98494.88;;;27.24;32.37
13235;BME280;6683;48.506;9.050;2023-10-09T16:06:50;98501.78;;;27.11;32.44
13235;BME280;6683;48.506;9.050;2023-10-09T16:09:53;98495.69;;;26.96;33.06
13235;BME280;6683;48.506;9.050;2023-10-09T16:12:56;98494.72;;;26.81;32.89
13235;BME280;6683;48.506;9.050;2023-10-09T16:15:58;98484.50;;;26.68;33.33
13235;BME280;6683;48.506;9.050;2023-10-09T16:19:01;98490.59;;;26.55;33.54
13235;BME280;6683;48.506;9.050;2023-10-09T16:22:06;98506.66;;;26.42;33.66
13235;BME280;6683;48.506;9.050;2023-10-09T16:25:13;98511.59;;;26.30;33.74
13235;BME280;6683;48.506;9.050;2023-10-09T16:28:18;98516.03;;;26.16;33.94
13235;BME280;6683;48.506;9.050;2023-10-09T16:31:20;98517.66;;;26.01;34.07
13235;BME280;6683;48.506;9.050;2023-10-09T16:34:24;98515.00;;;25.91;34.38
13235;BME280;6683;48.506;9.050;2023-10-09T16:37:29;98514.53;;;25.79;34.45
13235;BME280;6683;48.506;9.050;2023-10-09T16:40:31;98521.63;;;25.65;34.54
13235;BME280;6683;48.506;9.050;2023-10-09T16:43:34;98521.38;;;25.52;34.98
13235;BME280;6683;48.506;9.050;2023-10-09T16:46:37;98524.09;;;25.36;35.04
13235;BME280;6683;48.506;9.050;2023-10-09T16:49:40;98520.59;;;25.21;35.43